sensor_id;sensor_type;location;lat;lon;timestamp;pressure;altitude;pressure_sealevel;temperature;humidity
16461;BME280;8341;42.048;24.650;2023-03-14T00:01:27;97608.84;;;3.93;57.21
16461;BME280;8341;42.048;24.650;2023-03-14T00:03:54;97611.28;;;3.88;56.79
16461;BME280;8341;42.048;24.650;2023-03-14T00:06:20;97601.13;;;3.75;57.24
16461;BME280;8341;42.048;24.650;2023-03-14T00:08:47;97600.84;;;3.70;55.64
16461;BME280;8341;42.048;24.650;2023-03-14T00:11:16;97592.16;;;3.62;56.64
16461;BME280;8341;42.048;24.650;2023-03-14T00:13:46;97586.03;;;3.62;57.63
16461;BME280;8341;42.048;24.650;2023-03-14T00:16:13;97589.72;;;3.68;57.14
16461;BME280;8341;42.048;24.650;2023-03-14T00:18:40;97579.97;;;3.74;59.25
16461;BME280;8341;42.048;24.650;2023-03-14T00:21:08;97572.53;;;3.62;57.94
16461;BME280;8341;42.048;24.650;2023-03-14T00:23:37;97570.59;;;3.62;59.31
16461;BME280;8341;42.048;24.650;2023-03-14T00:26:06;97563.97;;;3.67;57.51
16461;BME280;8341;42.048;24.650;2023-03-14T00:28:34;97557.31;;;3.71;57.90
16461;BME280;8341;42.048;24.650;2023-03-14T00:31:04;97549.78;;;3.63;59.04
16461;BME280;8341;42.048;24.650;2023-03-14T00:33:31;97556.09;;;3.56;55.96
16461;BME280;8341;42.048;24.650;2023-03-14T00:35:59;97550.91;;;3.46;57.94
16461;BME280;8341;42.048;24.650;2023-03-14T00:38:27;97547.88;;;3.44;59.81
16461;BME280;8341;42.048;24.650;2023-03-14T00:40:54;97546.19;;;3.50;59.01
16461;BME280;8341;42.048;24.650;2023-03-14T00:43:21;97549.59;;;3.54;59.11
16461;BME280;8341;42.048;24.650;2023-03-14T00:45:48;97551.09;;;3.55;58.57
16461;BME280;8341;42.048;24.650;2023-03-14T00:48:16;97537.28;;;3.53;58.03
16461;BME280;8341;42.048;24.650;2023-03-14T00:50:43;97531.72;;;3.44;57.35
16461;BME280;8341;42.048;24.650;2023-03-14T00:53:10;97527.31;;;3.34;57.23
16461;BME280;8341;42.048;24.650;2023-03-14T00:55:39;97532.56;;;3.01;57.50
16461;BME280;8341;42.048;24.650;2023-03-14T00:58:06;97527.16;;;3.01;56.62
16461;BME280;8341;42.048;24.650;2023-03-14T01:00:33;97521.53;;;3.15;58.70
16461;BME280;8341;42.048;24.650;2023-03-14T01:03:00;97520.41;;;2.93;59.60
16461;BME280;8341;42.048;24.650;2023-03-14T01:05:28;97521.91;;;3.14;60.18
16461;BME280;8341;42.048;24.650;2023-03-14T01:07:55;97512.34;;;3.13;59.77
16461;BME280;8341;42.048;24.650;2023-03-14T01:10:22;97512.25;;;3.16;59.67
16461;BME280;8341;42.048;24.650;2023-03-14T01:12:49;97508.66;;;3.23;59.71
16461;BME280;8341;42.048;24.650;2023-03-14T01:15:16;97507.56;;;3.21;58.82
16461;BME280;8341;42.048;24.650;2023-03-14T01:17:43;97507.56;;;3.21;59.80
16461;BME280;8341;42.048;24.650;2023-03-14T01:20:12;97507.19;;;3.18;59.79
16461;BME280;8341;42.048;24.650;2023-03-14T01:22:43;97506.78;;;3.20;58.78
16461;BME280;8341;42.048;24.650;2023-03-14T01:25:11;97501.47;;;3.16;58.16
16461;BME280;8341;42.048;24.650;2023-03-14T01:27:38;97506.44;;;2.98;59.60
16461;BME280;8341;42.048;24.650;2023-03-14T01:30:06;97503.97;;;3.07;60.33
16461;BME280;8341;42.048;24.650;2023-03-14T01:32:34;97501.94;;;3.11;60.94
16461;BME280;8341;42.048;24.650;2023-03-14T01:35:00;97502.25;;;2.97;60.55
16461;BME280;8341;42.048;24.650;2023-03-14T01:37:27;97505.69;;;2.98;60.47
16461;BME280;8341;42.048;24.650;2023-03-14T01:39:55;97507.22;;;2.99;60.72
16461;BME280;8341;42.048;24.650;2023-03-14T01:42:22;97504.44;;;2.83;61.43
16461;BME280;8341;42.048;24.650;2023-03-14T01:44:51;97500.78;;;2.93;60.81
16461;BME280;8341;42.048;24.650;2023-03-14T01:47:19;97499.06;;;2.83;60.39
16461;BME280;8341;42.048;24.650;2023-03-14T01:49:47;97495.41;;;2.73;62.00
16461;BME280;8341;42.048;24.650;2023-03-14T01:52:19;97491.47;;;2.78;60.34
16461;BME280;8341;42.048;24.650;2023-03-14T01:54:50;97491.97;;;2.92;58.89
16461;BME280;8341;42.048;24.650;2023-03-14T01:57:23;97488.78;;;2.97;59.36
16461;BME280;8341;42.048;24.650;2023-03-14T01:59:54;97493.75;;;2.99;58.99
16461;BME280;8341;42.048;24.650;2023-03-14T02:02:24;97486.94;;;2.75;59.57
16461;BME280;8341;42.048;24.650;2023-03-14T02:04:53;97485.03;;;2.91;61.46
16461;BME280;8341;42.048;24.650;2023-03-14T02:07:24;97481.75;;;2.64;62.46
16461;BME280;8341;42.048;24.650;2023-03-14T02:09:54;97483.59;;;2.67;62.06
16461;BME280;8341;42.048;24.650;2023-03-14T02:12:23;97485.16;;;2.65;62.41
16461;BME280;8341;42.048;24.650;2023-03-14T02:14:51;97481.03;;;2.60;63.65
16461;BME280;8341;42.048;24.650;2023-03-14T02:17:19;97479.31;;;2.70;64.40
16461;BME280;8341;42.048;24.650;2023-03-14T02:19:59;97474.34;;;2.68;61.68
16461;BME280;8341;42.048;24.650;2023-03-14T02:22:30;97464.19;;;2.56;61.59
16461;BME280;8341;42.048;24.650;2023-03-14T02:25:03;97455.78;;;2.54;61.59
16461;BME280;8341;42.048;24.650;2023-03-14T02:27:34;97449.00;;;2.46;61.96
16461;BME280;8341;42.048;24.650;2023-03-14T02:30:04;97458.81;;;2.56;63.10
16461;BME280;8341;42.048;24.650;2023-03-14T02:32:33;97458.34;;;2.61;64.69
16461;BME280;8341;42.048;24.650;2023-03-14T02:35:04;97461.38;;;2.63;63.77
16461;BME280;8341;42.048;24.650;2023-03-14T02:37:36;97460.41;;;2.53;63.25
16461;BME280;8341;42.048;24.650;2023-03-14T02:40:04;97463.16;;;2.50;62.76
16461;BME280;8341;42.048;24.650;2023-03-14T02:42:32;97470.91;;;2.25;65.38
16461;BME280;8341;42.048;24.650;2023-03-14T02:48:09;97462.56;;;2.39;65.36
16461;BME280;8341;42.048;24.650;2023-03-14T02:50:37;97470.59;;;2.42;65.05
16461;BME280;8341;42.048;24.650;2023-03-14T02:53:04;97468.19;;;2.48;64.34
16461;BME280;8341;42.048;24.650;2023-03-14T02:55:31;97471.34;;;2.43;63.62
16461;BME280;8341;42.048;24.650;2023-03-14T02:57:58;97475.09;;;2.49;63.01
16461;BME280;8341;42.048;24.650;2023-03-14T03:00:26;97480.06;;;2.50;62.17
16461;BME280;8341;42.048;24.650;2023-03-14T03:02:53;97482.00;;;2.50;63.44
16461;BME280;8341;42.048;24.650;2023-03-14T03:05:20;97484.91;;;2.59;63.41
16461;BME280;8341;42.048;24.650;2023-03-14T03:07:46;97483.25;;;2.65;63.45
16461;BME280;8341;42.048;24.650;2023-03-14T03:10:13;97483.38;;;2.58;64.19
16461;BME280;8341;42.048;24.650;2023-03-14T03:12:40;97484.81;;;2.63;63.38
16461;BME280;8341;42.048;24.650;2023-03-14T03:15:08;97490.41;;;2.52;63.71
16461;BME280;8341;42.048;24.650;2023-03-14T03:17:36;97482.13;;;2.43;64.04
16461;BME280;8341;42.048;24.650;2023-03-14T03:20:03;97476.41;;;2.41;63.55
16461;BME280;8341;42.048;24.650;2023-03-14T03:22:32;97476.75;;;2.43;63.64
16461;BME280;8341;42.048;24.650;2023-03-14T03:24:59;97478.06;;;2.54;62.27
16461;BME280;8341;42.048;24.650;2023-03-14T03:27:26;97472.47;;;2.45;63.07
16461;BME280;8341;42.048;24.650;2023-03-14T03:29:52;97479.19;;;2.34;62.36
16461;BME280;8341;42.048;24.650;2023-03-14T03:32:19;97469.00;;;2.45;64.65
16461;BME280;8341;42.048;24.650;2023-03-14T03:34:47;97466.75;;;2.43;65.12
16461;BME280;8341;42.048;24.650;2023-03-14T03:37:14;97466.94;;;2.33;64.24
16461;BME280;8341;42.048;24.650;2023-03-14T03:39:41;97464.25;;;2.33;63.78
16461;BME280;8341;42.048;24.650;2023-03-14T03:42:08;97469.16;;;2.38;65.57
16461;BME280;8341;42.048;24.650;2023-03-14T03:44:35;97460.34;;;2.34;64.78
16461;BME280;8341;42.048;24.650;2023-03-14T03:47:01;97466.84;;;2.36;64.06
16461;BME280;8341;42.048;24.650;2023-03-14T03:49:29;97468.91;;;2.29;63.09
16461;BME280;8341;42.048;24.650;2023-03-14T03:51:57;97464.25;;;2.10;63.73
16461;BME280;8341;42.048;24.650;2023-03-14T03:54:24;97456.47;;;2.15;63.61
16461;BME280;8341;42.048;24.650;2023-03-14T03:56:51;97463.78;;;2.15;63.52
16461;BME280;8341;42.048;24.650;2023-03-14T03:59:18;97463.31;;;2.20;65.59
16461;BME280;8341;42.048;24.650;2023-03-14T04:01:45;97456.94;;;2.33;64.56
16461;BME280;8341;42.048;24.650;2023-03-14T04:04:12;97448.75;;;2.17;63.60
16461;BME280;8341;42.048;24.650;2023-03-14T04:06:38;97445.81;;;2.08;63.42
16461;BME280;8341;42.048;24.650;2023-03-14T04:09:08;97428.94;;;2.08;65.51
16461;BME280;8341;42.048;24.650;2023-03-14T04:11:35;97436.13;;;2.14;65.30
16461;BME280;8341;42.048;24.650;2023-03-14T04:14:03;97438.63;;;2.25;63.40
16461;BME280;8341;42.048;24.650;2023-03-14T04:16:30;97438.56;;;2.28;63.89
16461;BME280;8341;42.048;24.650;2023-03-14T04:18:57;97426.56;;;2.33;65.05
16461;BME280;8341;42.048;24.650;2023-03-14T04:21:24;97439.94;;;2.36;65.27
16461;BME280;8341;42.048;24.650;2023-03-14T04:23:51;97436.91;;;2.34;64.04
16461;BME280;8341;42.048;24.650;2023-03-14T04:26:19;97440.78;;;2.33;64.32
16461;BME280;8341;42.048;24.650;2023-03-14T04:28:46;97437.84;;;2.24;66.57
16461;BME280;8341;42.048;24.650;2023-03-14T04:31:14;97433.06;;;2.35;65.11
16461;BME280;8341;42.048;24.650;2023-03-14T04:33:41;97441.53;;;2.34;63.93
16461;BME280;8341;42.048;24.650;2023-03-14T04:36:09;97446.97;;;2.30;65.02
16461;BME280;8341;42.048;24.650;2023-03-14T04:38:35;97441.47;;;2.37;65.07
16461;BME280;8341;42.048;24.650;2023-03-14T04:41:03;97440.25;;;2.19;65.51
16461;BME280;8341;42.048;24.650;2023-03-14T04:43:31;97436.75;;;2.22;64.82
16461;BME280;8341;42.048;24.650;2023-03-14T04:45:58;97438.63;;;2.25;64.72
16461;BME280;8341;42.048;24.650;2023-03-14T04:48:26;97434.56;;;2.36;64.52
16461;BME280;8341;42.048;24.650;2023-03-14T04:50:53;97432.84;;;2.46;63.44
16461;BME280;8341;42.048;24.650;2023-03-14T04:53:20;97437.41;;;2.49;63.86
16461;BME280;8341;42.048;24.650;2023-03-14T04:55:48;97438.09;;;2.53;63.85
16461;BME280;8341;42.048;24.650;2023-03-14T04:58:14;97444.16;;;2.57;63.02
16461;BME280;8341;42.048;24.650;2023-03-14T05:00:43;97443.34;;;2.60;62.91
16461;BME280;8341;42.048;24.650;2023-03-14T05:03:09;97439.81;;;2.63;62.30
16461;BME280;8341;42.048;24.650;2023-03-14T05:05:36;97445.00;;;2.54;63.70
16461;BME280;8341;42.048;24.650;2023-03-14T05:08:03;97452.81;;;2.68;62.57
16461;BME280;8341;42.048;24.650;2023-03-14T05:10:30;97458.41;;;2.77;62.12
16461;BME280;8341;42.048;24.650;2023-03-14T05:12:56;97448.25;;;2.85;60.92
16461;BME280;8341;42.048;24.650;2023-03-14T05:15:23;97457.00;;;2.89;61.58
16461;BME280;8341;42.048;24.650;2023-03-14T05:17:52;97460.03;;;2.91;61.36
16461;BME280;8341;42.048;24.650;2023-03-14T05:20:19;97460.88;;;2.88;61.36
16461;BME280;8341;42.048;24.650;2023-03-14T05:22:46;97457.47;;;3.03;60.56
16461;BME280;8341;42.048;24.650;2023-03-14T05:25:13;97455.66;;;3.16;60.65
16461;BME280;8341;42.048;24.650;2023-03-14T05:27:40;97460.88;;;3.24;62.31
16461;BME280;8341;42.048;24.650;2023-03-14T05:30:08;97464.13;;;3.35;62.25
16461;BME280;8341;42.048;24.650;2023-03-14T05:32:35;97462.28;;;3.48;62.34
16461;BME280;8341;42.048;24.650;2023-03-14T05:35:03;97460.97;;;3.72;60.96
16461;BME280;8341;42.048;24.650;2023-03-14T05:37:30;97463.31;;;3.86;60.54
16461;BME280;8341;42.048;24.650;2023-03-14T05:39:57;97461.47;;;3.99;58.93
16461;BME280;8341;42.048;24.650;2023-03-14T05:42:24;97453.03;;;4.13;58.14
16461;BME280;8341;42.048;24.650;2023-03-14T05:44:51;97456.38;;;4.33;56.40
16461;BME280;8341;42.048;24.650;2023-03-14T05:47:17;97458.28;;;4.49;56.38
16461;BME280;8341;42.048;24.650;2023-03-14T05:49:44;97463.25;;;4.51;55.45
16461;BME280;8341;42.048;24.650;2023-03-14T05:52:12;97454.44;;;4.63;55.28
16461;BME280;8341;42.048;24.650;2023-03-14T05:54:39;97454.06;;;4.77;55.56
16461;BME280;8341;42.048;24.650;2023-03-14T05:57:06;97450.31;;;4.87;54.67
16461;BME280;8341;42.048;24.650;2023-03-14T05:59:32;97457.47;;;5.06;54.69
16461;BME280;8341;42.048;24.650;2023-03-14T06:01:59;97442.56;;;5.14;53.82
16461;BME280;8341;42.048;24.650;2023-03-14T06:04:26;97452.31;;;5.24;54.81
16461;BME280;8341;42.048;24.650;2023-03-14T06:06:53;97453.94;;;5.22;53.71
16461;BME280;8341;42.048;24.650;2023-03-14T06:09:21;97447.66;;;5.37;52.35
16461;BME280;8341;42.048;24.650;2023-03-14T06:11:48;97444.09;;;5.40;52.29
16461;BME280;8341;42.048;24.650;2023-03-14T06:14:15;97441.84;;;5.51;52.53
16461;BME280;8341;42.048;24.650;2023-03-14T06:16:42;97449.28;;;5.60;53.23
16461;BME280;8341;42.048;24.650;2023-03-14T06:19:09;97442.06;;;5.69;51.81
16461;BME280;8341;42.048;24.650;2023-03-14T06:21:35;97446.06;;;5.78;53.29
16461;BME280;8341;42.048;24.650;2023-03-14T06:24:02;97445.16;;;5.81;50.93
16461;BME280;8341;42.048;24.650;2023-03-14T06:26:31;97436.63;;;5.82;51.62
16461;BME280;8341;42.048;24.650;2023-03-14T06:28:58;97431.53;;;5.84;50.15
16461;BME280;8341;42.048;24.650;2023-03-14T06:31:28;97430.38;;;5.85;50.79
16461;BME280;8341;42.048;24.650;2023-03-14T06:33:55;97425.28;;;5.49;50.79
16461;BME280;8341;42.048;24.650;2023-03-14T06:36:22;97428.13;;;4.79;53.27
16461;BME280;8341;42.048;24.650;2023-03-14T06:38:49;97430.66;;;4.58;55.43
16461;BME280;8341;42.048;24.650;2023-03-14T06:41:16;97438.41;;;4.27;56.81
16461;BME280;8341;42.048;24.650;2023-03-14T06:43:44;97436.69;;;4.04;57.21
16461;BME280;8341;42.048;24.650;2023-03-14T06:46:11;97442.41;;;4.06;56.83
16461;BME280;8341;42.048;24.650;2023-03-14T06:48:38;97444.97;;;3.97;58.15
16461;BME280;8341;42.048;24.650;2023-03-14T06:51:05;97439.13;;;4.15;58.07
16461;BME280;8341;42.048;24.650;2023-03-14T06:53:32;97432.94;;;4.30;56.42
16461;BME280;8341;42.048;24.650;2023-03-14T06:55:59;97437.56;;;4.30;56.28
16461;BME280;8341;42.048;24.650;2023-03-14T06:58:26;97433.44;;;4.25;56.92
16461;BME280;8341;42.048;24.650;2023-03-14T07:00:54;97424.84;;;4.14;57.71
16461;BME280;8341;42.048;24.650;2023-03-14T07:03:22;97425.63;;;3.99;57.29
16461;BME280;8341;42.048;24.650;2023-03-14T07:05:49;97422.34;;;3.91;59.01
16461;BME280;8341;42.048;24.650;2023-03-14T07:08:16;97417.66;;;3.79;61.01
16461;BME280;8341;42.048;24.650;2023-03-14T07:10:43;97415.88;;;3.72;64.08
16461;BME280;8341;42.048;24.650;2023-03-14T07:13:09;97423.22;;;3.72;65.11
16461;BME280;8341;42.048;24.650;2023-03-14T07:15:36;97415.47;;;3.74;65.24
16461;BME280;8341;42.048;24.650;2023-03-14T07:18:04;97413.75;;;3.96;64.32
16461;BME280;8341;42.048;24.650;2023-03-14T07:20:31;97409.03;;;4.00;64.35
16461;BME280;8341;42.048;24.650;2023-03-14T07:22:58;97406.81;;;4.11;64.27
16461;BME280;8341;42.048;24.650;2023-03-14T07:25:28;97400.09;;;4.32;64.58
16461;BME280;8341;42.048;24.650;2023-03-14T07:27:55;97389.53;;;4.37;63.22
16461;BME280;8341;42.048;24.650;2023-03-14T07:30:21;97390.44;;;4.47;62.74
16461;BME280;8341;42.048;24.650;2023-03-14T07:32:48;97394.75;;;4.44;62.29
16461;BME280;8341;42.048;24.650;2023-03-14T07:35:16;97399.16;;;4.38;62.35
16461;BME280;8341;42.048;24.650;2023-03-14T07:37:43;97387.31;;;4.49;61.84
16461;BME280;8341;42.048;24.650;2023-03-14T07:40:11;97387.94;;;4.81;61.38
16461;BME280;8341;42.048;24.650;2023-03-14T07:42:40;97398.22;;;4.99;59.76
16461;BME280;8341;42.048;24.650;2023-03-14T07:45:08;97388.28;;;5.08;60.66
16461;BME280;8341;42.048;24.650;2023-03-14T07:47:35;97389.47;;;5.33;59.21
16461;BME280;8341;42.048;24.650;2023-03-14T07:50:02;97387.75;;;5.14;59.22
16461;BME280;8341;42.048;24.650;2023-03-14T07:52:30;97388.94;;;5.13;59.02
16461;BME280;8341;42.048;24.650;2023-03-14T07:54:57;97381.59;;;5.38;57.40
16461;BME280;8341;42.048;24.650;2023-03-14T07:57:24;97383.22;;;5.36;57.94
16461;BME280;8341;42.048;24.650;2023-03-14T07:59:51;97383.41;;;5.54;56.99
16461;BME280;8341;42.048;24.650;2023-03-14T08:02:18;97379.88;;;5.44;56.58
16461;BME280;8341;42.048;24.650;2023-03-14T08:04:47;97382.66;;;5.53;56.24
16461;BME280;8341;42.048;24.650;2023-03-14T08:07:14;97386.97;;;5.63;55.74
16461;BME280;8341;42.048;24.650;2023-03-14T08:09:43;97376.81;;;5.42;57.30
16461;BME280;8341;42.048;24.650;2023-03-14T08:12:10;97378.34;;;5.43;57.50
16461;BME280;8341;42.048;24.650;2023-03-14T08:14:37;97377.44;;;5.72;56.87
16461;BME280;8341;42.048;24.650;2023-03-14T08:17:03;97385.56;;;5.72;56.39
16461;BME280;8341;42.048;24.650;2023-03-14T08:19:30;97382.41;;;5.86;55.80
16461;BME280;8341;42.048;24.650;2023-03-14T08:21:57;97390.16;;;5.84;55.53
16461;BME280;8341;42.048;24.650;2023-03-14T08:24:24;97385.31;;;5.79;56.39
16461;BME280;8341;42.048;24.650;2023-03-14T08:26:52;97381.84;;;5.91;55.55
16461;BME280;8341;42.048;24.650;2023-03-14T08:29:19;97384.56;;;5.91;56.23
16461;BME280;8341;42.048;24.650;2023-03-14T08:31:46;97380.25;;;6.15;55.48
16461;BME280;8341;42.048;24.650;2023-03-14T08:34:14;97382.50;;;6.29;55.77
16461;BME280;8341;42.048;24.650;2023-03-14T08:36:41;97369.13;;;6.56;54.04
16461;BME280;8341;42.048;24.650;2023-03-14T08:39:08;97367.50;;;6.37;53.83
16461;BME280;8341;42.048;24.650;2023-03-14T08:41:35;97359.44;;;6.46;54.25
16461;BME280;8341;42.048;24.650;2023-03-14T08:44:07;97360.69;;;6.32;52.98
16461;BME280;8341;42.048;24.650;2023-03-14T08:46:34;97362.69;;;6.63;53.10
16461;BME280;8341;42.048;24.650;2023-03-14T08:49:01;97362.31;;;6.73;52.55
16461;BME280;8341;42.048;24.650;2023-03-14T08:51:27;97359.41;;;6.89;52.65
16461;BME280;8341;42.048;24.650;2023-03-14T08:53:54;97343.69;;;7.15;51.73
16461;BME280;8341;42.048;24.650;2023-03-14T08:56:21;97332.00;;;6.97;51.05
16461;BME280;8341;42.048;24.650;2023-03-14T08:58:48;97330.38;;;6.99;51.58
16461;BME280;8341;42.048;24.650;2023-03-14T09:01:16;97331.31;;;7.14;52.10
16461;BME280;8341;42.048;24.650;2023-03-14T09:03:44;97312.53;;;7.20;49.86
16461;BME280;8341;42.048;24.650;2023-03-14T09:06:11;97322.34;;;7.26;50.71
16461;BME280;8341;42.048;24.650;2023-03-14T09:08:38;97319.34;;;7.42;50.21
16461;BME280;8341;42.048;24.650;2023-03-14T09:11:07;97311.84;;;7.46;49.53
16461;BME280;8341;42.048;24.650;2023-03-14T09:13:34;97306.25;;;7.41;49.42
16461;BME280;8341;42.048;24.650;2023-03-14T09:16:01;97302.97;;;7.64;49.50
16461;BME280;8341;42.048;24.650;2023-03-14T09:18:29;97300.59;;;8.02;49.50
16461;BME280;8341;42.048;24.650;2023-03-14T09:20:56;97288.19;;;7.83;49.00
16461;BME280;8341;42.048;24.650;2023-03-14T09:23:23;97289.13;;;8.16;49.41
16461;BME280;8341;42.048;24.650;2023-03-14T09:25:54;97281.28;;;8.00;47.99
16461;BME280;8341;42.048;24.650;2023-03-14T09:28:22;97277.06;;;8.27;48.57
16461;BME280;8341;42.048;24.650;2023-03-14T09:30:49;97275.66;;;8.40;48.17
16461;BME280;8341;42.048;24.650;2023-03-14T09:33:16;97267.19;;;8.56;47.17
16461;BME280;8341;42.048;24.650;2023-03-14T09:35:44;97254.31;;;8.66;48.62
16461;BME280;8341;42.048;24.650;2023-03-14T09:38:11;97261.91;;;8.53;46.54
16461;BME280;8341;42.048;24.650;2023-03-14T09:40:40;97260.66;;;8.63;46.55
16461;BME280;8341;42.048;24.650;2023-03-14T09:43:09;97261.75;;;8.56;46.66
16461;BME280;8341;42.048;24.650;2023-03-14T09:45:40;97265.50;;;8.59;46.58
16461;BME280;8341;42.048;24.650;2023-03-14T09:48:14;97274.22;;;8.72;47.28
16461;BME280;8341;42.048;24.650;2023-03-14T09:50:46;97270.56;;;8.42;46.44
16461;BME280;8341;42.048;24.650;2023-03-14T09:53:17;97257.13;;;8.80;47.12
16461;BME280;8341;42.048;24.650;2023-03-14T09:55:45;97264.88;;;9.06;46.35
16461;BME280;8341;42.048;24.650;2023-03-14T09:58:15;97260.25;;;9.21;46.14
16461;BME280;8341;42.048;24.650;2023-03-14T10:00:43;97268.88;;;9.19;45.65
16461;BME280;8341;42.048;24.650;2023-03-14T10:03:29;97263.41;;;9.28;45.33
16461;BME280;8341;42.048;24.650;2023-03-14T10:05:59;97258.06;;;9.34;44.74
16461;BME280;8341;42.048;24.650;2023-03-14T10:08:26;97259.97;;;9.42;43.76
16461;BME280;8341;42.048;24.650;2023-03-14T10:10:54;97246.28;;;9.37;44.38
16461;BME280;8341;42.048;24.650;2023-03-14T10:13:23;97240.50;;;9.35;46.11
16461;BME280;8341;42.048;24.650;2023-03-14T10:15:52;97241.94;;;9.69;43.47
16461;BME280;8341;42.048;24.650;2023-03-14T10:18:19;97232.19;;;9.77;44.09
16461;BME280;8341;42.048;24.650;2023-03-14T10:20:47;97220.66;;;9.82;42.30
16461;BME280;8341;42.048;24.650;2023-03-14T10:23:24;97215.22;;;9.82;42.47
16461;BME280;8341;42.048;24.650;2023-03-14T10:26:04;97209.59;;;10.00;42.49
16461;BME280;8341;42.048;24.650;2023-03-14T10:28:33;97207.91;;;9.88;42.73
16461;BME280;8341;42.048;24.650;2023-03-14T10:31:00;97197.63;;;10.21;44.31
16461;BME280;8341;42.048;24.650;2023-03-14T10:33:29;97195.34;;;10.20;41.44
16461;BME280;8341;42.048;24.650;2023-03-14T10:35:59;97188.97;;;10.37;42.03
16461;BME280;8341;42.048;24.650;2023-03-14T10:38:29;97193.63;;;10.66;41.24
16461;BME280;8341;42.048;24.650;2023-03-14T10:40:57;97184.75;;;10.86;39.83
16461;BME280;8341;42.048;24.650;2023-03-14T10:43:26;97176.53;;;10.65;40.26
16461;BME280;8341;42.048;24.650;2023-03-14T10:45:55;97166.94;;;10.55;39.91
16461;BME280;8341;42.048;24.650;2023-03-14T10:48:30;97170.31;;;10.50;41.18
16461;BME280;8341;42.048;24.650;2023-03-14T10:51:03;97163.56;;;10.46;40.81
16461;BME280;8341;42.048;24.650;2023-03-14T10:53:40;97165.47;;;10.40;40.17
16461;BME280;8341;42.048;24.650;2023-03-14T10:56:09;97154.31;;;10.73;40.00
16461;BME280;8341;42.048;24.650;2023-03-14T10:58:40;97145.31;;;10.87;39.30
16461;BME280;8341;42.048;24.650;2023-03-14T11:01:25;97134.78;;;11.14;39.72
16461;BME280;8341;42.048;24.650;2023-03-14T11:03:57;97128.41;;;11.03;39.37
16461;BME280;8341;42.048;24.650;2023-03-14T11:06:29;97117.25;;;11.01;38.78
16461;BME280;8341;42.048;24.650;2023-03-14T11:09:06;97128.25;;;10.92;39.05
16461;BME280;8341;42.048;24.650;2023-03-14T11:11:39;97114.28;;;11.04;38.45
16461;BME280;8341;42.048;24.650;2023-03-14T11:14:18;97107.94;;;11.33;38.84
16461;BME280;8341;42.048;24.650;2023-03-14T11:16:53;97097.13;;;11.44;40.53
16461;BME280;8341;42.048;24.650;2023-03-14T11:22:28;97073.47;;;11.36;38.44
16461;BME280;8341;42.048;24.650;2023-03-14T11:25:14;97068.88;;;11.47;38.97
16461;BME280;8341;42.048;24.650;2023-03-14T11:27:44;97055.34;;;11.64;38.82
16461;BME280;8341;42.048;24.650;2023-03-14T11:30:26;97044.56;;;11.49;38.82
16461;BME280;8341;42.048;24.650;2023-03-14T11:33:03;97048.78;;;11.24;38.41
16461;BME280;8341;42.048;24.650;2023-03-14T11:35:34;97035.22;;;11.61;38.37
16461;BME280;8341;42.048;24.650;2023-03-14T11:38:12;97035.56;;;11.69;38.74
16461;BME280;8341;42.048;24.650;2023-03-14T11:40:41;97023.53;;;11.86;39.06
16461;BME280;8341;42.048;24.650;2023-03-14T11:43:12;97021.25;;;12.11;38.64
16461;BME280;8341;42.048;24.650;2023-03-14T11:45:43;97022.09;;;12.28;37.81
16461;BME280;8341;42.048;24.650;2023-03-14T11:48:17;97007.44;;;12.31;37.91
16461;BME280;8341;42.048;24.650;2023-03-14T11:50:49;96995.63;;;12.56;37.89
16461;BME280;8341;42.048;24.650;2023-03-14T11:53:20;96987.75;;;12.21;37.69
16461;BME280;8341;42.048;24.650;2023-03-14T11:55:50;96977.75;;;12.55;37.74
16461;BME280;8341;42.048;24.650;2023-03-14T11:58:20;96977.78;;;12.18;36.99
16461;BME280;8341;42.048;24.650;2023-03-14T12:00:52;96972.53;;;12.57;37.89
16461;BME280;8341;42.048;24.650;2023-03-14T12:03:26;96962.13;;;12.72;38.35
16461;BME280;8341;42.048;24.650;2023-03-14T12:06:04;96956.16;;;12.74;37.24
16461;BME280;8341;42.048;24.650;2023-03-14T12:08:42;96947.41;;;12.53;37.07
16461;BME280;8341;42.048;24.650;2023-03-14T12:11:15;96937.41;;;11.91;37.82
16461;BME280;8341;42.048;24.650;2023-03-14T12:13:47;96921.44;;;12.26;38.27
16461;BME280;8341;42.048;24.650;2023-03-14T12:16:32;96918.00;;;12.37;37.89
16461;BME280;8341;42.048;24.650;2023-03-14T12:21:58;96907.06;;;12.48;37.40
16461;BME280;8341;42.048;24.650;2023-03-14T12:24:29;96900.75;;;12.95;36.91
16461;BME280;8341;42.048;24.650;2023-03-14T12:26:59;96898.00;;;12.90;36.19
16461;BME280;8341;42.048;24.650;2023-03-14T12:29:27;96895.81;;;13.10;37.33
16461;BME280;8341;42.048;24.650;2023-03-14T12:32:20;96893.81;;;13.28;37.25
16461;BME280;8341;42.048;24.650;2023-03-14T12:34:48;96883.56;;;12.84;37.36
16461;BME280;8341;42.048;24.650;2023-03-14T12:37:33;96881.28;;;12.60;37.59
16461;BME280;8341;42.048;24.650;2023-03-14T12:40:16;96895.44;;;12.64;37.48
16461;BME280;8341;42.048;24.650;2023-03-14T12:42:53;96883.75;;;12.58;37.67
16461;BME280;8341;42.048;24.650;2023-03-14T12:45:26;96893.50;;;12.81;37.41
16461;BME280;8341;42.048;24.650;2023-03-14T12:48:00;96889.75;;;12.73;37.68
16461;BME280;8341;42.048;24.650;2023-03-14T12:50:35;96883.28;;;12.76;37.61
16461;BME280;8341;42.048;24.650;2023-03-14T12:56:20;96882.56;;;12.76;38.79
16461;BME280;8341;42.048;24.650;2023-03-14T12:59:05;96879.28;;;12.55;37.89
16461;BME280;8341;42.048;24.650;2023-03-14T13:01:46;96873.50;;;12.36;38.52
16461;BME280;8341;42.048;24.650;2023-03-14T13:04:14;96873.81;;;12.66;39.61
16461;BME280;8341;42.048;24.650;2023-03-14T13:06:49;96861.19;;;12.96;38.88
16461;BME280;8341;42.048;24.650;2023-03-14T13:09:45;96870.63;;;12.95;37.82
16461;BME280;8341;42.048;24.650;2023-03-14T13:12:17;96859.19;;;13.02;37.79
16461;BME280;8341;42.048;24.650;2023-03-14T13:14:48;96845.28;;;13.28;37.94
16461;BME280;8341;42.048;24.650;2023-03-14T13:17:22;96855.72;;;13.41;38.11
16461;BME280;8341;42.048;24.650;2023-03-14T13:19:53;96852.72;;;13.28;37.75
16461;BME280;8341;42.048;24.650;2023-03-14T13:22:24;96849.03;;;13.08;37.45
16461;BME280;8341;42.048;24.650;2023-03-14T13:24:59;96840.53;;;13.17;38.72
16461;BME280;8341;42.048;24.650;2023-03-14T13:27:26;96824.59;;;13.38;39.36
16461;BME280;8341;42.048;24.650;2023-03-14T13:29:54;96824.34;;;13.53;38.88